Daten der privaten Wetterstation Blomberg/Lippe
Wetterdaten: aktuell Samstag, 07.12.2019 06:00
Datum Zeit Auentemp. Rel.Feuchte Luftdruck Regen Wind Richtung Richtung Windben
07.12.2019 06:00 8,1 C 96 % 1007,1 hPa 0,0 l/m 6,9 km/h (2 Bft) W-SW 254 21,9 km/h (4 Bft)
07.12.2019 05:45 8,1 C 96 % 1006,7 hPa 0,0 l/m 6,8 km/h (2 Bft) W 261 23,8 km/h (4 Bft)
07.12.2019 05:30 8,2 C 96 % 1006,5 hPa 0,0 l/m 7,9 km/h (2 Bft) W 277 23,8 km/h (4 Bft)
07.12.2019 05:15 8,2 C 96 % 1006,3 hPa 0,2 l/m 6,5 km/h (2 Bft) W 276 21,9 km/h (4 Bft)
07.12.2019 05:00 8,2 C 96 % 1006,1 hPa 0,0 l/m 7,2 km/h (2 Bft) W 275 23,8 km/h (4 Bft)
07.12.2019 04:45 8,1 C 96 % 1005,8 hPa 0,0 l/m 9,5 km/h (2 Bft) W-SW 241 29,3 km/h (5 Bft)
07.12.2019 04:30 8,1 C 96 % 1005,6 hPa 0,0 l/m 9,9 km/h (2 Bft) W-SW 250 29,3 km/h (5 Bft)
07.12.2019 04:15 8,1 C 96 % 1005,4 hPa 0,0 l/m 8,3 km/h (2 Bft) W 264 34,7 km/h (5 Bft)
07.12.2019 04:00 8,0 C 96 % 1005,1 hPa 0,0 l/m 7,1 km/h (2 Bft) W-SW 245 25,6 km/h (4 Bft)
07.12.2019 03:45 7,9 C 96 % 1004,8 hPa 0,2 l/m 7,8 km/h (2 Bft) W 276 29,3 km/h (5 Bft)
07.12.2019 03:30 7,8 C 95 % 1004,5 hPa 0,2 l/m 7,2 km/h (2 Bft) W-SW 246 29,3 km/h (5 Bft)
07.12.2019 03:15 7,6 C 95 % 1004,3 hPa 0,2 l/m 5,7 km/h (2 Bft) W-NW 294 20,1 km/h (4 Bft)
07.12.2019 03:00 7,6 C 94 % 1004,4 hPa 0,2 l/m 7,1 km/h (2 Bft) SW 220 25,6 km/h (4 Bft)
07.12.2019 02:45 7,7 C 95 % 1004,2 hPa 0,2 l/m 7,3 km/h (2 Bft) W-SW 240 29,3 km/h (5 Bft)
07.12.2019 02:30 7,8 C 94 % 1004,1 hPa 0,2 l/m 8,8 km/h (2 Bft) SW 221 23,8 km/h (4 Bft)
07.12.2019 02:15 7,8 C 94 % 1003,9 hPa 0,2 l/m 8,0 km/h (2 Bft) N 355 25,6 km/h (4 Bft)
07.12.2019 02:00 7,8 C 94 % 1004,0 hPa 0,0 l/m 10,0 km/h (2 Bft) S-SW 196 32,9 km/h (5 Bft)
07.12.2019 01:45 7,8 C 94 % 1003,9 hPa 0,0 l/m 8,6 km/h (2 Bft) SW 215 34,7 km/h (5 Bft)
07.12.2019 01:30 7,8 C 95 % 1004,1 hPa 0,0 l/m 9,8 km/h (2 Bft) SW 226 27,4 km/h (5 Bft)
07.12.2019 01:15 7,6 C 96 % 1004,4 hPa 0,0 l/m 9,6 km/h (2 Bft) SW 215 25,6 km/h (4 Bft)
07.12.2019 01:00 7,3 C 97 % 1004,3 hPa 0,0 l/m 8,9 km/h (2 Bft) S-SW 207 23,8 km/h (4 Bft)
07.12.2019 00:45 7,1 C 97 % 1004,6 hPa 0,0 l/m 9,0 km/h (2 Bft) S-SW 211 34,7 km/h (5 Bft)
07.12.2019 00:30 6,8 C 98 % 1004,5 hPa 0,0 l/m 9,2 km/h (2 Bft) S-SW 196 29,3 km/h (5 Bft)
07.12.2019 00:15 6,5 C 98 % 1004,6 hPa 0,0 l/m 9,5 km/h (2 Bft) S-SW 207 29,3 km/h (5 Bft)
07.12.2019 00:00 5,8 C 98 % 1004,6 hPa 0,0 l/m 5,2 km/h (1 Bft) S-SW 196 20,1 km/h (4 Bft)
06.12.2019 23:45 5,5 C 97 % 1004,9 hPa 0,0 l/m 4,0 km/h (1 Bft) S-SO 155 14,6 km/h (3 Bft)
06.12.2019 23:30 5,7 C 97 % 1004,9 hPa 0,0 l/m 5,0 km/h (1 Bft) S-SW 205 18,3 km/h (3 Bft)
06.12.2019 23:15 5,9 C 97 % 1004,9 hPa 0,2 l/m 5,9 km/h (2 Bft) S-SW 192 14,6 km/h (3 Bft)
06.12.2019 23:00 6,1 C 98 % 1005,1 hPa 0,0 l/m 6,9 km/h (2 Bft) SO 135 18,3 km/h (3 Bft)
06.12.2019 22:45 6,1 C 98 % 1005,3 hPa 0,0 l/m 8,6 km/h (2 Bft) S 180 21,9 km/h (4 Bft)
06.12.2019 22:30 6,2 C 98 % 1005,4 hPa 0,0 l/m 11,9 km/h (2 Bft) S-SW 205 32,9 km/h (5 Bft)
06.12.2019 22:15 6,1 C 98 % 1005,4 hPa 0,0 l/m 10,4 km/h (2 Bft) S 180 31,1 km/h (5 Bft)
06.12.2019 22:00 5,8 C 98 % 1005,2 hPa 0,0 l/m 12,0 km/h (2 Bft) S-SO 162 31,1 km/h (5 Bft)
06.12.2019 21:45 5,5 C 98 % 1005,4 hPa 0,0 l/m 10,5 km/h (2 Bft) SW 221 25,6 km/h (4 Bft)
06.12.2019 21:30 5,1 C 98 % 1005,8 hPa 0,0 l/m 8,1 km/h (2 Bft) S-SW 211 23,8 km/h (4 Bft)
06.12.2019 21:15 4,7 C 98 % 1005,9 hPa 0,0 l/m 7,7 km/h (2 Bft) S-SW 199 18,3 km/h (3 Bft)
06.12.2019 21:00 4,4 C 98 % 1006,0 hPa 0,0 l/m 5,9 km/h (2 Bft) S-SW 196 21,9 km/h (4 Bft)
06.12.2019 20:45 4,2 C 98 % 1006,0 hPa 0,0 l/m 6,2 km/h (2 Bft) S-SW 207 20,1 km/h (4 Bft)
06.12.2019 20:30 4,0 C 98 % 1006,1 hPa 0,0 l/m 5,5 km/h (2 Bft) S-SO 163 18,3 km/h (3 Bft)
06.12.2019 20:15 3,8 C 98 % 1006,3 hPa 0,2 l/m 2,9 km/h (1 Bft) S-SO 159 9,1 km/h (2 Bft)
06.12.2019 20:00 3,7 C 98 % 1006,4 hPa 0,0 l/m 3,3 km/h (1 Bft) S 188 12,8 km/h (3 Bft)
06.12.2019 19:45 3,5 C 98 % 1006,5 hPa 0,0 l/m 3,4 km/h (1 Bft) SO 130 12,8 km/h (3 Bft)
06.12.2019 19:30 3,4 C 97 % 1006,6 hPa 0,0 l/m 3,2 km/h (1 Bft) S-SW 194 16,5 km/h (3 Bft)
06.12.2019 19:15 3,3 C 97 % 1006,6 hPa 0,0 l/m 2,4 km/h (1 Bft) S 169 11,0 km/h (2 Bft)
06.12.2019 19:00 3,2 C 97 % 1006,7 hPa 0,0 l/m 3,1 km/h (1 Bft) S-SW 195 12,8 km/h (3 Bft)
06.12.2019 18:45 3,0 C 97 % 1006,7 hPa 0,0 l/m 2,7 km/h (1 Bft) O-SO 107 11,0 km/h (2 Bft)
06.12.2019 18:30 2,8 C 97 % 1006,8 hPa 0,0 l/m 2,6 km/h (1 Bft) O 98 14,6 km/h (3 Bft)
06.12.2019 18:15 2,8 C 97 % 1007,0 hPa 0,0 l/m 4,0 km/h (1 Bft) O-SO 105 14,6 km/h (3 Bft)
06.12.2019 18:00 2,7 C 97 % 1007,3 hPa 0,0 l/m 9,0 km/h (2 Bft) SO 143 21,9 km/h (4 Bft)
_ Min-Zeit 07:00 07:30 02:15 - 19:15 - - 20:15
Minimum _ 0,6 C 92 % 1003,9 hPa - 2,4 km/h (1 Bft) - - 9,1 km/h (2 Bft)
_ Max-Zeit 05:30 00:30 09:00 05:15 22:00 - - 04:15
Maximum _ 8,2 C 98 % 1013,5 hPa 0,2 l/m 12,0 km/h
S-SO (2 Bft)
- - 34,7 km/h
W-SW (5 Bft)
Durchschnitt _ 3,7 C 96 % 1008,4 hPa #2,8 l/m 7,1 km/h (2 Bft) S-SW - 21,0 km/h (4 Bft)
Wetterstation: Davis Vantage Pro2 Aktiv